createdAt,value
2022-12-26T00:00:12.143Z,98663.00
2022-12-26T00:02:43.192Z,98666.00
2022-12-26T00:05:15.546Z,98672.00
2022-12-26T00:07:46.834Z,98672.00
2022-12-26T00:10:17.806Z,98668.00
2022-12-26T00:12:48.675Z,98679.00
2022-12-26T00:15:19.607Z,98677.00
2022-12-26T00:17:50.442Z,98682.00
2022-12-26T00:20:21.541Z,98677.00
2022-12-26T00:22:54.856Z,98686.00
2022-12-26T00:25:26.135Z,98693.00
2022-12-26T00:27:57.263Z,98684.00
2022-12-26T00:30:28.321Z,98682.00
2022-12-26T00:32:59.264Z,98684.00
2022-12-26T00:35:30.632Z,98705.00
2022-12-26T00:38:01.505Z,98687.00
2022-12-26T00:40:32.389Z,98684.00
2022-12-26T00:43:03.256Z,98680.00
2022-12-26T00:45:34.152Z,98677.00
2022-12-26T00:48:05.317Z,98681.00
2022-12-26T00:50:36.208Z,98692.00
2022-12-26T00:53:07.173Z,98693.00
2022-12-26T00:55:38.184Z,98676.00
2022-12-26T00:58:09.124Z,98671.00
2022-12-26T01:00:40.135Z,98675.00
2022-12-26T01:03:12.452Z,98685.00
2022-12-26T01:05:51.852Z,98683.00
2022-12-26T01:08:24.962Z,98689.00
2022-12-26T01:10:56.113Z,98681.00
2022-12-26T01:13:27.005Z,98677.00
2022-12-26T01:15:58.094Z,98672.00
2022-12-26T01:18:29.791Z,98676.00
2022-12-26T01:21:07.492Z,98678.00
2022-12-26T01:23:38.430Z,98680.00
2022-12-26T01:26:17.793Z,98689.00
2022-12-26T01:28:53.062Z,98685.00
2022-12-26T01:31:24.591Z,98682.00
2022-12-26T01:33:55.486Z,98675.00
2022-12-26T01:36:26.366Z,98675.00
2022-12-26T01:38:57.242Z,98675.00
2022-12-26T01:41:28.129Z,98700.00
2022-12-26T01:44:00.647Z,98688.00
2022-12-26T01:46:44.599Z,98691.00
2022-12-26T01:49:31.763Z,98691.00
2022-12-26T01:52:09.901Z,98690.00
2022-12-26T01:54:44.999Z,98718.00
2022-12-26T01:57:30.648Z,98701.00
2022-12-26T02:00:03.978Z,98701.00
2022-12-26T02:02:55.148Z,98707.00
2022-12-26T02:05:35.781Z,98694.00
2022-12-26T02:08:12.183Z,98687.00
2022-12-26T02:10:59.211Z,98690.00
2022-12-26T02:13:31.801Z,98686.00
2022-12-26T02:16:08.460Z,98695.00
2022-12-26T02:18:39.721Z,98687.00
2022-12-26T02:21:32.164Z,98694.00
2022-12-26T02:24:26.839Z,98692.00
2022-12-26T02:27:00.775Z,98710.00
2022-12-26T02:30:05.082Z,98678.00
2022-12-26T02:33:16.534Z,98685.00
2022-12-26T02:36:13.920Z,98687.00
2022-12-26T02:38:56.686Z,98700.00
2022-12-26T02:41:33.366Z,98704.00
2022-12-26T02:44:43.755Z,98700.00
2022-12-26T02:47:30.493Z,98703.00
2022-12-26T02:50:32.932Z,98694.00
2022-12-26T02:53:50.408Z,98691.00
2022-12-26T02:57:08.402Z,98685.00
2022-12-26T03:00:25.816Z,98684.00
2022-12-26T03:03:38.665Z,98697.00
2022-12-26T03:06:34.404Z,98700.00
2022-12-26T03:09:35.130Z,98706.00
2022-12-26T03:12:58.752Z,98705.00
2022-12-26T03:15:52.501Z,98695.00
2022-12-26T03:18:57.847Z,98696.00
2022-12-26T03:21:23.431Z,98688.00
2022-12-26T03:23:56.875Z,98686.00
2022-12-26T03:26:41.480Z,98697.00
2022-12-26T03:29:37.934Z,98679.00
2022-12-26T03:32:13.205Z,98680.00
2022-12-26T03:34:45.233Z,98672.00
2022-12-26T03:37:49.075Z,98672.00
2022-12-26T03:40:51.183Z,98670.00
2022-12-26T03:44:08.945Z,98669.00
2022-12-26T03:47:38.889Z,98670.00
2022-12-26T03:50:52.440Z,98671.00
2022-12-26T03:53:47.743Z,98676.00
2022-12-26T03:56:44.661Z,98677.00
2022-12-26T03:59:44.306Z,98677.00
2022-12-26T04:02:35.802Z,98677.00
2022-12-26T04:05:27.564Z,98667.00
2022-12-26T04:08:21.919Z,98672.00
2022-12-26T04:11:17.735Z,98680.00
2022-12-26T04:14:54.661Z,98683.00
2022-12-26T04:18:15.120Z,98693.00
2022-12-26T04:21:34.549Z,98698.00
2022-12-26T04:24:45.082Z,98699.00
2022-12-26T04:27:38.026Z,98708.00
2022-12-26T04:30:28.280Z,98701.00
2022-12-26T04:33:44.247Z,98696.00
2022-12-26T04:36:51.354Z,98688.00
2022-12-26T04:39:48.087Z,98701.00
2022-12-26T04:42:39.875Z,98691.00
2022-12-26T04:45:11.638Z,98700.00
2022-12-26T04:48:02.588Z,98696.00
2022-12-26T04:50:33.482Z,98688.00
2022-12-26T04:53:04.467Z,98681.00
2022-12-26T04:55:36.349Z,98683.00
2022-12-26T04:58:07.227Z,98679.00
2022-12-26T05:00:38.219Z,98689.00
2022-12-26T05:03:32.511Z,98691.00
2022-12-26T05:06:22.380Z,98699.00
2022-12-26T05:09:12.208Z,98700.00
2022-12-26T05:11:47.267Z,98701.00
2022-12-26T05:14:18.309Z,98699.00
2022-12-26T05:17:07.952Z,98697.00
2022-12-26T05:19:57.026Z,98689.00
2022-12-26T05:22:51.018Z,98707.00
2022-12-26T05:25:50.018Z,98695.00
2022-12-26T05:28:40.135Z,98697.00
2022-12-26T05:31:17.352Z,98698.00
2022-12-26T05:34:07.241Z,98694.00
2022-12-26T05:36:46.503Z,98695.00
2022-12-26T05:39:18.058Z,98687.00
2022-12-26T05:41:49.080Z,98699.00
2022-12-26T05:44:19.947Z,98699.00
2022-12-26T05:46:50.970Z,98695.00
2022-12-26T05:49:21.882Z,98723.00
2022-12-26T05:51:52.759Z,98699.00
2022-12-26T05:54:23.635Z,98706.00
2022-12-26T05:56:54.529Z,98704.00
2022-12-26T05:59:25.516Z,98700.00
2022-12-26T06:01:56.525Z,98698.00
2022-12-26T06:04:27.611Z,98696.00
2022-12-26T06:06:58.484Z,98707.00
2022-12-26T06:09:29.437Z,98711.00
2022-12-26T06:12:00.392Z,98714.00
2022-12-26T06:14:31.247Z,98715.00
2022-12-26T06:17:02.336Z,98704.00
2022-12-26T06:19:33.201Z,98707.00
2022-12-26T06:22:04.139Z,98706.00
2022-12-26T06:24:35.128Z,98701.00
2022-12-26T06:27:06.106Z,98697.00
2022-12-26T06:29:40.174Z,98703.00
2022-12-26T06:32:11.069Z,98696.00
2022-12-26T06:34:41.931Z,98691.00
2022-12-26T06:37:12.871Z,98702.00
2022-12-26T06:39:43.733Z,98693.00
2022-12-26T06:42:14.624Z,98680.00
2022-12-26T06:44:45.503Z,98686.00
2022-12-26T06:47:16.527Z,98693.00
2022-12-26T06:49:47.531Z,98698.00
2022-12-26T06:52:18.398Z,98700.00
2022-12-26T06:54:49.276Z,98696.00
2022-12-26T06:57:20.270Z,98698.00
2022-12-26T06:59:51.131Z,98701.00
2022-12-26T07:02:23.426Z,98697.00
2022-12-26T07:04:54.450Z,98701.00
2022-12-26T07:07:25.387Z,98699.00
2022-12-26T07:09:57.140Z,98707.00
2022-12-26T07:12:28.051Z,98713.00
2022-12-26T07:15:01.563Z,98711.00
2022-12-26T07:17:33.023Z,98703.00
2022-12-26T07:20:05.435Z,98704.00
2022-12-26T07:22:36.312Z,98703.00
2022-12-26T07:25:07.885Z,98705.00
2022-12-26T07:27:38.775Z,98723.00
2022-12-26T07:30:10.537Z,98717.00
2022-12-26T07:32:41.589Z,98720.00
2022-12-26T07:35:12.485Z,98722.00
2022-12-26T07:37:43.347Z,98718.00
2022-12-26T07:40:14.393Z,98718.00
2022-12-26T07:42:45.241Z,98709.00
2022-12-26T07:45:16.265Z,98734.00
2022-12-26T07:47:47.135Z,98724.00
2022-12-26T07:50:18.030Z,98754.00
2022-12-26T07:52:48.918Z,98725.00
2022-12-26T07:55:20.418Z,98723.00
2022-12-26T07:57:52.629Z,98728.00
2022-12-26T08:00:23.617Z,98731.00
2022-12-26T08:02:54.697Z,98739.00
2022-12-26T08:05:25.665Z,98743.00
2022-12-26T08:07:56.694Z,98735.00
2022-12-26T08:10:27.706Z,98739.00
2022-12-26T08:12:58.693Z,98732.00
2022-12-26T08:15:29.590Z,98724.00
2022-12-26T08:18:00.465Z,98733.00
2022-12-26T08:20:31.761Z,98734.00
2022-12-26T08:23:02.604Z,98728.00
2022-12-26T08:25:33.495Z,98740.00
2022-12-26T08:28:04.686Z,98745.00
2022-12-26T08:30:35.754Z,98744.00
2022-12-26T08:33:07.299Z,98753.00
2022-12-26T08:35:39.468Z,98758.00
2022-12-26T08:38:10.362Z,98775.00
2022-12-26T08:40:43.979Z,98771.00
2022-12-26T08:43:44.966Z,98770.00
2022-12-26T08:46:10.301Z,98783.00
2022-12-26T08:48:42.069Z,98781.00
2022-12-26T08:51:23.794Z,98798.00
2022-12-26T08:53:55.690Z,98800.00
2022-12-26T08:56:28.884Z,98798.00
2022-12-26T08:58:59.739Z,98809.00
2022-12-26T09:01:32.153Z,98818.00
2022-12-26T09:04:04.674Z,98827.00
2022-12-26T09:06:38.672Z,98837.00
2022-12-26T09:09:11.604Z,98838.00
2022-12-26T09:11:43.104Z,98846.00
2022-12-26T09:14:14.045Z,98856.00
2022-12-26T09:16:50.327Z,98852.00
2022-12-26T09:19:22.687Z,98853.00
2022-12-26T09:22:13.527Z,98860.00
2022-12-26T09:24:44.451Z,98865.00
2022-12-26T09:27:15.365Z,98868.00
2022-12-26T09:29:48.555Z,98864.00
2022-12-26T09:32:19.468Z,98852.00
2022-12-26T09:34:50.307Z,98856.00
2022-12-26T09:37:21.237Z,98848.00
2022-12-26T09:39:52.156Z,98868.00
2022-12-26T09:42:53.440Z,98873.00
2022-12-26T09:46:07.441Z,98877.00
2022-12-26T09:48:58.824Z,98901.00
2022-12-26T09:51:33.625Z,98902.00
2022-12-26T09:54:09.957Z,98923.00
2022-12-26T09:59:52.492Z,98921.00
2022-12-26T10:02:26.507Z,98925.00
2022-12-26T10:04:57.575Z,98937.00
2022-12-26T10:07:44.309Z,98917.00
2022-12-26T10:10:38.893Z,98929.00
2022-12-26T10:13:22.360Z,98923.00
2022-12-26T10:16:32.160Z,98927.00
2022-12-26T10:19:33.100Z,98929.00
2022-12-26T10:22:33.571Z,98920.00
2022-12-26T10:25:30.340Z,98903.00
2022-12-26T10:28:15.188Z,98912.00
2022-12-26T10:30:47.726Z,98919.00
2022-12-26T10:33:36.771Z,98920.00
2022-12-26T10:36:27.668Z,98928.00
2022-12-26T10:39:01.637Z,98925.00
2022-12-26T10:41:47.461Z,98921.00
2022-12-26T10:44:21.350Z,98925.00
2022-12-26T10:47:21.222Z,98936.00
2022-12-26T10:49:52.477Z,98923.00
2022-12-26T10:52:32.312Z,98931.00
2022-12-26T10:55:28.554Z,98961.00
2022-12-26T10:57:55.166Z,98940.00
2022-12-26T11:00:28.540Z,98942.00
2022-12-26T11:03:13.321Z,98925.00
2022-12-26T11:06:10.129Z,98936.00
2022-12-26T11:08:49.659Z,98927.00
2022-12-26T11:11:27.226Z,98933.00
2022-12-26T11:14:02.536Z,98921.00
2022-12-26T11:16:37.893Z,98906.00
2022-12-26T11:19:33.180Z,98914.00
2022-12-26T11:22:25.410Z,98917.00
2022-12-26T11:25:30.465Z,98888.00
2022-12-26T11:28:25.509Z,98882.00
2022-12-26T11:30:57.693Z,98878.00
2022-12-26T11:33:34.300Z,98894.00
2022-12-26T11:36:23.472Z,98883.00
2022-12-26T11:39:00.314Z,98887.00
2022-12-26T11:41:40.339Z,98914.00
2022-12-26T11:44:28.613Z,98918.00
2022-12-26T11:47:12.871Z,98914.00
2022-12-26T11:50:10.468Z,98920.00
2022-12-26T11:52:56.416Z,98921.00
2022-12-26T11:55:35.591Z,98894.00
2022-12-26T11:58:09.638Z,98895.00
2022-12-26T12:01:05.791Z,98891.00
2022-12-26T12:03:49.299Z,98899.00
2022-12-26T12:06:58.610Z,98888.00
2022-12-26T12:09:45.440Z,98871.00
2022-12-26T12:12:40.261Z,98880.00
2022-12-26T12:15:25.548Z,98885.00
2022-12-26T12:18:31.666Z,98894.00
2022-12-26T12:21:29.738Z,98897.00
2022-12-26T12:24:48.853Z,98906.00
2022-12-26T12:27:47.588Z,98915.00
2022-12-26T12:30:29.232Z,98901.00
2022-12-26T12:33:38.826Z,98889.00
2022-12-26T12:36:12.979Z,98886.00
2022-12-26T12:39:06.025Z,98888.00
2022-12-26T12:42:34.947Z,98921.00
2022-12-26T12:45:33.526Z,98885.00
2022-12-26T12:48:19.292Z,98896.00
2022-12-26T12:51:20.545Z,98893.00
2022-12-26T12:54:21.357Z,98890.00
2022-12-26T12:57:30.442Z,98887.00
2022-12-26T13:00:18.191Z,98909.00
2022-12-26T13:03:02.638Z,98890.00
2022-12-26T13:06:07.066Z,98889.00
2022-12-26T13:08:54.488Z,98893.00
2022-12-26T13:11:38.068Z,98888.00
2022-12-26T13:14:49.440Z,98883.00
2022-12-26T13:17:46.483Z,98897.00
2022-12-26T13:20:33.208Z,98880.00
2022-12-26T13:23:38.298Z,98886.00
2022-12-26T13:26:21.011Z,98878.00
2022-12-26T13:29:17.749Z,98869.00
2022-12-26T13:31:48.779Z,98854.00
2022-12-26T13:34:21.557Z,98857.00
2022-12-26T13:36:58.452Z,98848.00
2022-12-26T13:39:35.900Z,98857.00
2022-12-26T13:42:28.027Z,98853.00
2022-12-26T13:45:37.437Z,98870.00
2022-12-26T13:48:36.994Z,98864.00
2022-12-26T13:51:49.321Z,98859.00
2022-12-26T13:54:22.643Z,98875.00
2022-12-26T13:57:25.610Z,98871.00
2022-12-26T14:00:24.040Z,98880.00
2022-12-26T14:03:42.707Z,98874.00
2022-12-26T14:06:44.446Z,98880.00
2022-12-26T14:09:40.340Z,98880.00
2022-12-26T14:12:35.946Z,98864.00
2022-12-26T14:15:22.258Z,98855.00
2022-12-26T14:18:30.168Z,98853.00
2022-12-26T14:21:46.861Z,98856.00
2022-12-26T14:24:32.313Z,98871.00
2022-12-26T14:27:50.329Z,98871.00
2022-12-26T14:30:27.395Z,98851.00
2022-12-26T14:33:29.023Z,98862.00
2022-12-26T14:36:19.400Z,98858.00
2022-12-26T14:39:13.206Z,98848.00
2022-12-26T14:42:24.508Z,98854.00
2022-12-26T14:44:58.570Z,98855.00
2022-12-26T14:47:49.942Z,98861.00
2022-12-26T14:50:32.973Z,98865.00
2022-12-26T14:53:28.734Z,98858.00
2022-12-26T14:56:27.154Z,98849.00
2022-12-26T14:59:34.817Z,98852.00
2022-12-26T15:02:34.478Z,98840.00
2022-12-26T15:05:11.856Z,98845.00
2022-12-26T15:08:20.466Z,98840.00
2022-12-26T15:11:19.344Z,98840.00
2022-12-26T15:14:14.235Z,98834.00
2022-12-26T15:17:09.119Z,98838.00
2022-12-26T15:20:20.011Z,98827.00
2022-12-26T15:23:17.069Z,98813.00
2022-12-26T15:26:31.001Z,98824.00
2022-12-26T15:29:29.793Z,98838.00
2022-12-26T15:32:19.496Z,98838.00
2022-12-26T15:35:01.829Z,98856.00
2022-12-26T15:38:00.401Z,98850.00
2022-12-26T15:40:37.831Z,98846.00
2022-12-26T15:43:23.499Z,98849.00
2022-12-26T15:46:22.271Z,98861.00
2022-12-26T15:49:23.812Z,98852.00
2022-12-26T15:52:44.752Z,98859.00
2022-12-26T15:55:18.680Z,98846.00
2022-12-26T15:57:54.423Z,98830.00
2022-12-26T16:00:31.001Z,98843.00
2022-12-26T16:03:19.815Z,98845.00
2022-12-26T16:06:32.494Z,98849.00
2022-12-26T16:09:22.105Z,98856.00
2022-12-26T16:11:57.192Z,98841.00
2022-12-26T16:14:39.741Z,98878.00
2022-12-26T16:17:18.020Z,98854.00
2022-12-26T16:19:52.229Z,98867.00
2022-12-26T16:22:47.299Z,98888.00
2022-12-26T16:25:25.365Z,98856.00
2022-12-26T16:27:58.832Z,98852.00
2022-12-26T16:30:36.958Z,98852.00
2022-12-26T16:33:08.265Z,98860.00
2022-12-26T16:35:42.114Z,98876.00
2022-12-26T16:38:18.474Z,98872.00
2022-12-26T16:40:51.597Z,98871.00
2022-12-26T16:43:29.132Z,98870.00
2022-12-26T16:46:03.734Z,98878.00
2022-12-26T16:48:36.873Z,98861.00
2022-12-26T16:51:42.715Z,98857.00
2022-12-26T16:54:22.675Z,98861.00
2022-12-26T16:57:08.221Z,98865.00
2022-12-26T16:59:52.946Z,98865.00
2022-12-26T17:02:32.010Z,98873.00
2022-12-26T17:05:15.868Z,98880.00
2022-12-26T17:07:49.921Z,98869.00
2022-12-26T17:10:34.068Z,98869.00
2022-12-26T17:13:09.605Z,98863.00
2022-12-26T17:15:54.293Z,98860.00
2022-12-26T17:18:39.879Z,98866.00
2022-12-26T17:21:29.277Z,98869.00
2022-12-26T17:24:26.167Z,98883.00
2022-12-26T17:27:26.481Z,98887.00
2022-12-26T17:30:19.971Z,98898.00
2022-12-26T17:32:50.941Z,98908.00
2022-12-26T17:35:27.125Z,98921.00
2022-12-26T17:38:04.396Z,98912.00
2022-12-26T17:40:41.011Z,98905.00
2022-12-26T17:43:11.819Z,98912.00
2022-12-26T17:45:46.827Z,98908.00
2022-12-26T17:48:18.220Z,98902.00
2022-12-26T17:50:55.232Z,98929.00
2022-12-26T17:53:38.198Z,98933.00
2022-12-26T17:56:16.925Z,98957.00
2022-12-26T17:58:49.555Z,98957.00
2022-12-26T18:01:22.212Z,98954.00
2022-12-26T18:03:53.433Z,98955.00
2022-12-26T18:06:24.571Z,98949.00
2022-12-26T18:08:55.442Z,98958.00
2022-12-26T18:11:26.295Z,98960.00
2022-12-26T18:13:57.140Z,98959.00
2022-12-26T18:16:29.650Z,98965.00
2022-12-26T18:19:01.608Z,98978.00
2022-12-26T18:21:32.509Z,98987.00
2022-12-26T18:24:03.529Z,98974.00
2022-12-26T18:26:35.400Z,98984.00
2022-12-26T18:29:06.358Z,98997.00
2022-12-26T18:31:37.712Z,98994.00
2022-12-26T18:34:08.683Z,99013.00
2022-12-26T18:36:42.214Z,99039.00
2022-12-26T18:39:17.054Z,99023.00
2022-12-26T18:41:47.945Z,99020.00
2022-12-26T18:44:20.558Z,99013.00
2022-12-26T18:46:51.906Z,99012.00
2022-12-26T18:49:22.797Z,99000.00
2022-12-26T18:51:53.665Z,99013.00
2022-12-26T18:54:24.643Z,99032.00
2022-12-26T18:56:55.581Z,99020.00
2022-12-26T18:59:26.487Z,99048.00
2022-12-26T19:01:57.413Z,99043.00
2022-12-26T19:04:28.405Z,99060.00
2022-12-26T19:06:59.297Z,99049.00
2022-12-26T19:09:30.150Z,99056.00
2022-12-26T19:12:01.069Z,99060.00
2022-12-26T19:14:31.943Z,99066.00
2022-12-26T19:17:02.919Z,99078.00
2022-12-26T19:19:33.861Z,99072.00
2022-12-26T19:22:04.832Z,99074.00
2022-12-26T19:24:36.570Z,99066.00
2022-12-26T19:27:07.623Z,99070.00
2022-12-26T19:29:38.600Z,99080.00
2022-12-26T19:32:09.561Z,99093.00
2022-12-26T19:34:40.448Z,99089.00
2022-12-26T19:37:11.326Z,99094.00
2022-12-26T19:39:42.222Z,99102.00
2022-12-26T19:42:13.089Z,99107.00
2022-12-26T19:44:44.624Z,99128.00
2022-12-26T19:47:15.691Z,99120.00
2022-12-26T19:49:46.566Z,99133.00
2022-12-26T19:52:17.829Z,99156.00
2022-12-26T19:54:48.694Z,99140.00
2022-12-26T19:57:19.793Z,99150.00
2022-12-26T19:59:51.167Z,99153.00
2022-12-26T20:02:24.885Z,99172.00
2022-12-26T20:04:55.873Z,99180.00
2022-12-26T20:07:26.760Z,99184.00
2022-12-26T20:09:57.593Z,99189.00
2022-12-26T20:12:28.494Z,99189.00
2022-12-26T20:14:59.434Z,99194.00
2022-12-26T20:17:30.370Z,99203.00
2022-12-26T20:20:01.252Z,99202.00
2022-12-26T20:22:32.113Z,99213.00
2022-12-26T20:25:04.140Z,99210.00
2022-12-26T20:27:35.274Z,99219.00
2022-12-26T20:30:07.532Z,99218.00
2022-12-26T20:32:38.436Z,99231.00
2022-12-26T20:35:09.825Z,99236.00
2022-12-26T20:37:40.694Z,99234.00
2022-12-26T20:40:12.154Z,99242.00
2022-12-26T20:42:42.981Z,99249.00
2022-12-26T20:45:13.893Z,99258.00
2022-12-26T20:47:44.811Z,99258.00
2022-12-26T20:50:17.536Z,99263.00
2022-12-26T20:52:48.392Z,99271.00
2022-12-26T20:55:19.345Z,99268.00
2022-12-26T20:57:50.243Z,99276.00
2022-12-26T21:00:21.273Z,99280.00
2022-12-26T21:02:53.369Z,99283.00
2022-12-26T21:05:25.435Z,99289.00
2022-12-26T21:07:56.291Z,99288.00
2022-12-26T21:10:27.195Z,99311.00
2022-12-26T21:12:58.345Z,99311.00
2022-12-26T21:15:29.284Z,99325.00
2022-12-26T21:18:00.150Z,99320.00
2022-12-26T21:20:31.679Z,99339.00
2022-12-26T21:23:02.555Z,99342.00
2022-12-26T21:25:33.771Z,99340.00
2022-12-26T21:28:04.871Z,99329.00
2022-12-26T21:30:35.789Z,99339.00
2022-12-26T21:33:06.685Z,99333.00
2022-12-26T21:35:38.186Z,99341.00
2022-12-26T21:38:09.090Z,99340.00
2022-12-26T21:40:43.856Z,99345.00
2022-12-26T21:43:14.879Z,99342.00
2022-12-26T21:45:45.908Z,99352.00
2022-12-26T21:48:16.988Z,99365.00
2022-12-26T21:50:47.848Z,99356.00
2022-12-26T21:53:18.746Z,99370.00
2022-12-26T21:55:49.648Z,99391.00
2022-12-26T21:58:20.484Z,99380.00
2022-12-26T22:00:51.393Z,99392.00
2022-12-26T22:03:40.725Z,99392.00
2022-12-26T22:06:20.695Z,99388.00
2022-12-26T22:08:52.030Z,99415.00
2022-12-26T22:11:48.986Z,99402.00
2022-12-26T22:14:20.059Z,99406.00
2022-12-26T22:16:55.320Z,99402.00
2022-12-26T22:19:26.571Z,99414.00
2022-12-26T22:21:57.575Z,99424.00
2022-12-26T22:24:30.257Z,99429.00
2022-12-26T22:27:01.143Z,99438.00
2022-12-26T22:29:32.036Z,99428.00
2022-12-26T22:32:03.018Z,99449.00
2022-12-26T22:34:33.894Z,99451.00
2022-12-26T22:37:04.879Z,99449.00
2022-12-26T22:39:35.792Z,99457.00
2022-12-26T22:42:06.672Z,99459.00
2022-12-26T22:44:37.550Z,99458.00
2022-12-26T22:47:08.418Z,99455.00
2022-12-26T22:49:39.255Z,99468.00
2022-12-26T22:52:15.645Z,99462.00
2022-12-26T22:54:46.966Z,99468.00
2022-12-26T22:57:17.859Z,99467.00
2022-12-26T23:02:39.809Z,99476.00
2022-12-26T23:05:12.607Z,99479.00
2022-12-26T23:07:43.809Z,99479.00
2022-12-26T23:10:23.035Z,99492.00
2022-12-26T23:12:54.542Z,99491.00
2022-12-26T23:15:27.891Z,99501.00
2022-12-26T23:18:43.103Z,99489.00
2022-12-26T23:21:48.716Z,99503.00
2022-12-26T23:24:26.393Z,99502.00
2022-12-26T23:27:22.738Z,99498.00
2022-12-26T23:30:13.312Z,99518.00
2022-12-26T23:32:50.313Z,99509.00
2022-12-26T23:35:22.818Z,99516.00
2022-12-26T23:37:54.581Z,99505.00
2022-12-26T23:40:25.533Z,99514.00
2022-12-26T23:42:56.379Z,99529.00
2022-12-26T23:45:27.282Z,99539.00
2022-12-26T23:47:58.183Z,99548.00
2022-12-26T23:50:29.142Z,99545.00
2022-12-26T23:52:59.993Z,99553.00
2022-12-26T23:55:30.931Z,99539.00
2022-12-26T23:58:01.933Z,99551.00
